Time;durP1;ratioP1;P1;durP2;ratioP2;P2;SDS_P1;SDS_P2;PMS_P1;PMS_P2;Temp;Humidity;BMP_temperature;BMP_pressure;BME280_temperature;BME280_humidity;BME280_pressure;Samples;Min_cycle;Max_cycle;Signal;HPM_P1;HPM_P2
2022/03/01 00:00:29;;;;;;;10.07;5.57;;;;;;;4.07;55.14;101157.16;5084753;28;20030;-85
2022/03/01 00:02:54;;;;;;;17.02;8.00;;;;;;;3.88;56.25;101153.19;5085170;28;20074;-86
2022/03/01 00:05:19;;;;;;;12.55;6.65;;;;;;;4.00;56.34;101154.41;5083451;28;20030;-86
2022/03/01 00:07:45;;;;;;;12.97;6.63;;;;;;;3.97;55.58;101147.50;5084322;28;20047;-86
2022/03/01 00:10:10;;;;;;;13.27;6.47;;;;;;;3.67;56.96;101146.66;5083936;28;20264;-85
2022/03/01 00:12:35;;;;;;;11.32;5.50;;;;;;;3.81;56.02;101153.06;5083542;28;20056;-87
2022/03/01 00:15:01;;;;;;;11.50;6.18;;;;;;;3.71;56.48;101150.66;5083623;28;20073;-86
2022/03/01 00:17:26;;;;;;;11.38;5.13;;;;;;;3.49;56.48;101161.31;5083524;28;20016;-86
2022/03/01 00:19:52;;;;;;;9.55;4.78;;;;;;;3.70;55.73;101149.00;5064466;28;20294;-86
2022/03/01 00:25:20;;;;;;;11.90;5.65;;;;;;;3.50;57.17;101154.91;5044757;28;20126;-84
2022/03/01 00:27:45;;;;;;;10.63;6.38;;;;;;;3.53;57.13;101169.88;5044612;28;20025;-85
2022/03/01 00:30:11;;;;;;;11.75;6.75;;;;;;;3.52;56.93;101158.25;5043881;28;20138;-84
2022/03/01 00:32:37;;;;;;;13.77;6.80;;;;;;;3.66;55.96;101153.09;5052074;28;20032;-85
2022/03/01 00:35:03;;;;;;;13.00;5.47;;;;;;;3.57;56.90;101155.00;5063326;28;20242;-86
2022/03/01 00:37:28;;;;;;;13.18;5.53;;;;;;;3.46;57.49;101153.59;5064169;28;20025;-85
2022/03/01 00:39:53;;;;;;;8.55;4.38;;;;;;;3.64;56.55;101149.72;5063896;28;20814;-85
2022/03/01 00:42:19;;;;;;;30.55;7.72;;;;;;;3.78;56.05;101151.59;5064045;28;20021;-86
2022/03/01 00:44:44;;;;;;;12.35;6.13;;;;;;;3.55;56.59;101155.19;5079787;28;20514;-85
2022/03/01 00:47:09;;;;;;;15.80;6.70;;;;;;;3.44;56.84;101151.06;5063774;28;20037;-84
2022/03/01 00:49:35;;;;;;;10.60;5.78;;;;;;;3.52;56.96;101147.47;5064859;28;20034;-85
2022/03/01 00:52:00;;;;;;;14.50;5.43;;;;;;;3.31;57.00;101140.94;5061927;28;20063;-87
2022/03/01 00:54:26;;;;;;;12.38;6.22;;;;;;;3.29;57.28;101132.19;5063852;28;20020;-86
2022/03/01 00:56:51;;;;;;;14.02;6.75;;;;;;;3.40;57.44;101143.56;5077321;28;20031;-86
2022/03/01 00:59:16;;;;;;;9.55;5.53;;;;;;;3.52;56.91;101142.06;5083357;28;20024;-86
2022/03/01 01:01:42;;;;;;;10.40;5.10;;;;;;;3.59;56.83;101134.94;5083975;28;20027;-86
2022/03/01 01:04:07;;;;;;;11.50;5.85;;;;;;;3.44;56.68;101139.47;5083575;28;20063;-86
2022/03/01 01:06:32;;;;;;;10.65;5.55;;;;;;;3.31;57.41;101138.25;5084193;28;20035;-87
2022/03/01 01:08:57;;;;;;;15.00;5.68;;;;;;;3.26;57.12;101137.94;5082426;28;20028;-86
2022/03/01 01:11:23;;;;;;;8.80;4.80;;;;;;;3.21;57.51;101135.81;5083780;28;20043;-85
2022/03/01 01:13:48;;;;;;;14.02;6.00;;;;;;;3.33;57.56;101144.28;5083623;28;20480;-85
2022/03/01 01:16:14;;;;;;;12.80;5.30;;;;;;;3.40;57.78;101143.56;5084213;28;20073;-86
2022/03/01 01:18:43;;;;;;;13.15;5.43;;;;;;;3.16;58.09;101146.28;5074001;28;20111;-85
2022/03/01 01:21:09;;;;;;;12.07;5.47;;;;;;;3.35;57.00;101147.63;5062959;28;20032;-86
2022/03/01 01:23:34;;;;;;;11.82;5.80;;;;;;;3.32;56.76;101145.28;5063978;28;20025;-85
2022/03/01 01:25:59;;;;;;;11.03;6.17;;;;;;;3.31;56.84;101149.03;5079908;28;20029;-85
2022/03/01 01:28:24;;;;;;;10.90;6.10;;;;;;;3.16;57.71;101143.56;5067307;28;20689;-86
2022/03/01 01:30:50;;;;;;;12.63;6.50;;;;;;;3.23;57.49;101154.47;5067166;28;20040;-86
2022/03/01 01:36:37;;;;;;;11.65;6.93;;;;;;;2.97;58.12;101143.03;5066135;28;20046;-85
2022/03/01 01:39:03;;;;;;;14.67;4.57;;;;;;;2.97;58.01;101150.31;5066880;28;20124;-86
2022/03/01 01:41:28;;;;;;;12.73;6.47;;;;;;;3.10;57.92;101130.81;5067304;28;20260;-85
2022/03/01 01:43:53;;;;;;;14.02;7.22;;;;;;;3.11;57.18;101138.72;5066659;28;20059;-86
2022/03/01 01:46:19;;;;;;;13.02;5.82;;;;;;;3.24;56.89;101145.34;5065342;28;20571;-85
2022/03/01 01:48:44;;;;;;;12.00;6.68;;;;;;;3.40;55.99;101143.56;5066023;28;20440;-86
2022/03/01 01:51:10;;;;;;;11.13;6.32;;;;;;;3.29;57.99;101142.97;5066510;28;20074;-85
2022/03/01 01:53:35;;;;;;;12.75;6.25;;;;;;;3.26;58.87;101146.00;5067041;28;20546;-85
2022/03/01 01:56:00;;;;;;;12.25;6.50;;;;;;;3.94;53.91;101144.34;5074429;28;20047;-86
2022/03/01 01:58:26;;;;;;;10.75;5.78;;;;;;;4.14;54.15;101149.16;5087031;28;20059;-85
2022/03/01 02:00:51;;;;;;;13.77;6.45;;;;;;;3.82;55.96;101150.19;5086230;28;20052;-84
2022/03/01 02:03:16;;;;;;;12.20;6.87;;;;;;;3.77;56.01;101149.91;5087156;28;20032;-86
2022/03/01 02:05:41;;;;;;;10.27;5.77;;;;;;;3.95;53.59;101146.00;5085191;28;20805;-86
2022/03/01 02:11:29;;;;;;;12.60;6.55;;;;;;;3.50;55.83;101150.34;5085874;28;20038;-86
2022/03/01 02:13:54;;;;;;;11.85;6.60;;;;;;;3.37;57.46;101145.59;5086210;28;20028;-86
2022/03/01 02:16:19;;;;;;;8.23;4.82;;;;;;;3.47;57.85;101144.50;5086582;28;20438;-83
2022/03/01 02:18:46;;;;;;;14.73;6.93;;;;;;;3.73;54.99;101137.81;5075524;28;20025;-85
2022/03/01 02:21:11;;;;;;;16.83;7.72;;;;;;;4.12;52.13;101130.47;5064482;28;20306;-87
2022/03/01 02:23:36;;;;;;;12.93;4.72;;;;;;;4.27;52.78;101130.44;5065286;28;20415;-86
2022/03/01 02:26:02;;;;;;;9.68;5.75;;;;;;;4.43;50.11;101131.25;5065880;28;20112;-87
2022/03/01 02:28:27;;;;;;;10.25;5.30;;;;;;;4.60;50.87;101125.59;5066134;28;20033;-86
2022/03/01 02:30:52;;;;;;;14.80;6.40;;;;;;;4.65;50.02;101128.56;5066120;28;20637;-86
2022/03/01 02:33:18;;;;;;;15.80;6.45;;;;;;;4.72;49.28;101118.66;5065988;28;20163;-84
2022/03/01 02:35:43;;;;;;;16.45;7.72;;;;;;;4.57;50.17;101120.59;5066176;28;20380;-86
2022/03/01 02:38:08;;;;;;;12.20;6.22;;;;;;;4.74;49.72;101119.31;5066236;28;20024;-86
2022/03/01 02:40:34;;;;;;;12.27;6.22;;;;;;;4.76;48.77;101117.25;5065496;28;20081;-85
2022/03/01 02:42:59;;;;;;;11.38;6.43;;;;;;;4.59;48.93;101102.31;5065960;28;20016;-86
2022/03/01 02:45:24;;;;;;;11.68;5.88;;;;;;;4.90;48.46;101098.47;5065617;28;20236;-85
2022/03/01 02:47:50;;;;;;;9.20;4.17;;;;;;;4.84;48.15;101099.25;5066034;28;20461;-85
2022/03/01 02:50:16;;;;;;;14.25;5.85;;;;;;;4.83;48.62;101102.97;5065745;28;20609;-85
2022/03/01 02:52:42;;;;;;;12.57;6.18;;;;;;;4.85;48.61;101096.34;5065689;28;20040;-85
2022/03/01 02:55:21;;;;;;;18.17;8.48;;;;;;;4.72;48.79;101091.63;5067576;28;20078;-86
2022/03/01 02:57:46;;;;;;;14.88;7.07;;;;;;;4.44;49.05;101090.53;5084761;28;20020;-86
2022/03/01 03:00:12;;;;;;;9.65;5.00;;;;;;;4.37;49.11;101083.41;5084017;28;20055;-86
2022/03/01 03:02:38;;;;;;;11.80;6.47;;;;;;;4.73;48.91;101087.09;5083705;28;20028;-87
2022/03/01 03:05:04;;;;;;;15.02;5.32;;;;;;;4.70;48.38;101085.59;5084666;28;20032;-86
2022/03/01 03:07:30;;;;;;;11.73;5.28;;;;;;;4.62;48.52;101081.16;5085253;28;20021;-86
2022/03/01 03:09:55;;;;;;;14.38;6.65;;;;;;;4.66;48.09;101070.78;5084173;28;20467;-87
2022/03/01 03:12:21;;;;;;;9.02;5.82;;;;;;;4.79;47.98;101070.94;5083694;28;20094;-86
2022/03/01 03:14:46;;;;;;;11.52;5.78;;;;;;;4.79;48.43;101062.84;5084415;28;20024;-86
2022/03/01 03:17:11;;;;;;;11.18;6.53;;;;;;;4.77;48.07;101058.66;5085533;28;20510;-86
2022/03/01 03:19:37;;;;;;;15.45;7.97;;;;;;;4.93;47.79;101065.66;5065976;28;20056;-85
2022/03/01 03:22:03;;;;;;;13.02;6.68;;;;;;;4.57;47.87;101055.75;5064663;28;20232;-86
2022/03/01 03:24:28;;;;;;;14.75;7.32;;;;;;;4.87;48.13;101050.22;5064370;28;20020;-85
2022/03/01 03:26:54;;;;;;;11.02;5.00;;;;;;;4.77;47.66;101056.78;5064574;28;20032;-86
2022/03/01 03:29:20;;;;;;;11.25;6.18;;;;;;;4.96;47.85;101049.06;5064073;28;20434;-86
2022/03/01 03:31:45;;;;;;;15.20;6.80;;;;;;;4.96;47.68;101050.91;5063744;28;20051;-86
2022/03/01 03:34:11;;;;;;;13.25;7.03;;;;;;;4.82;48.10;101056.19;5065113;28;20332;-85
2022/03/01 03:36:39;;;;;;;16.30;6.60;;;;;;;4.89;47.41;101064.34;5064778;28;20048;-85
2022/03/01 03:39:08;;;;;;;13.50;6.50;;;;;;;5.09;47.50;101058.28;5065193;28;20502;-85
2022/03/01 03:41:33;;;;;;;13.70;7.78;;;;;;;5.14;47.53;101061.25;5064411;28;20108;-84
2022/03/01 03:43:59;;;;;;;14.25;6.60;;;;;;;4.94;46.96;101066.50;5064011;28;20029;-86
2022/03/01 03:46:25;;;;;;;10.40;6.47;;;;;;;5.04;47.16;101063.44;5064818;28;20392;-86
2022/03/01 03:48:52;;;;;;;12.93;5.75;;;;;;;5.14;47.49;101061.25;5063416;28;20039;-85
2022/03/01 03:51:31;;;;;;;13.35;6.38;;;;;;;4.71;47.27;101062.97;5064941;28;20119;-87
2022/03/01 03:53:56;;;;;;;12.18;6.65;;;;;;;5.26;47.06;101053.41;5063310;28;20193;-88
2022/03/01 03:56:23;;;;;;;12.13;5.80;;;;;;;4.93;47.61;101057.53;5074287;28;20077;-85
2022/03/01 03:58:49;;;;;;;18.77;8.40;;;;;;;4.87;48.07;101061.00;5084452;28;20096;-86
2022/03/01 04:01:15;;;;;;;17.27;7.20;;;;;;;4.93;47.71;101060.25;5084375;28;20028;-85
2022/03/01 04:03:41;;;;;;;13.15;6.25;;;;;;;5.20;47.19;101052.34;5082389;28;20497;-86
2022/03/01 04:06:06;;;;;;;11.90;5.63;;;;;;;5.19;47.56;101047.94;5062988;28;20028;-86
2022/03/01 04:08:32;;;;;;;14.23;6.38;;;;;;;5.30;46.55;101048.44;5064750;28;20025;-87
2022/03/01 04:10:57;;;;;;;10.80;6.65;;;;;;;5.27;46.36;101048.84;5062939;28;20039;-86
2022/03/01 04:13:26;;;;;;;11.50;5.85;;;;;;;5.39;46.64;101058.06;5063962;28;20040;-84
2022/03/01 04:15:51;;;;;;;10.43;5.57;;;;;;;5.25;47.03;101052.56;5064605;28;20029;-86
2022/03/01 04:18:17;;;;;;;13.02;6.22;;;;;;;5.28;46.48;101053.22;5064276;28;20016;-86
2022/03/01 04:20:43;;;;;;;14.63;7.20;;;;;;;5.13;46.89;101046.88;5065098;28;20108;-86
2022/03/01 04:23:09;;;;;;;11.60;5.47;;;;;;;5.21;46.37;101045.88;5064625;28;20028;-86
2022/03/01 04:25:34;;;;;;;13.43;7.45;;;;;;;5.27;46.79;101043.44;5064474;28;20418;-87
2022/03/01 04:27:59;;;;;;;15.40;7.05;;;;;;;5.18;47.50;101040.03;5064062;28;20044;-87
2022/03/01 04:30:25;;;;;;;12.55;5.78;;;;;;;5.11;48.48;101050.81;5065155;28;20043;-85
2022/03/01 04:32:50;;;;;;;13.85;8.05;;;;;;;5.12;47.14;101052.50;5064481;28;20036;-86
2022/03/01 04:35:16;;;;;;;12.55;6.40;;;;;;;5.29;47.54;101049.50;5063872;28;20166;-86
2022/03/01 04:37:42;;;;;;;12.90;6.13;;;;;;;5.24;47.39;101048.22;5078691;28;20551;-86
2022/03/01 04:40:11;;;;;;;14.60;7.28;;;;;;;5.22;46.36;101057.53;5062731;28;20025;-86
2022/03/01 04:42:36;;;;;;;13.70;6.90;;;;;;;5.37;46.53;101054.72;5063563;28;20036;-86
2022/03/01 04:45:03;;;;;;;10.65;6.13;;;;;;;5.37;46.55;101049.31;5062531;28;20029;-86
2022/03/01 04:47:28;;;;;;;20.48;5.97;;;;;;;5.37;46.69;101054.72;5063132;28;20071;-86
2022/03/01 04:49:54;;;;;;;12.63;7.35;;;;;;;5.28;46.93;101045.94;5043313;28;20049;-86
2022/03/01 04:52:19;;;;;;;13.95;7.25;;;;;;;4.83;49.58;101067.84;5053295;28;20483;-86
2022/03/01 04:54:45;;;;;;;17.20;7.85;;;;;;;4.60;49.21;101060.75;5063968;28;20021;-86
2022/03/01 04:57:10;;;;;;;15.07;6.68;;;;;;;5.01;48.05;101061.97;5080618;28;20028;-85
2022/03/01 04:59:37;;;;;;;11.70;5.95;;;;;;;5.14;47.92;101058.53;5084465;28;20080;-85
2022/03/01 05:02:03;;;;;;;16.13;7.80;;;;;;;5.13;47.32;101064.97;5086975;28;20035;-86
2022/03/01 05:07:32;;;;;;;13.00;7.75;;;;;;;5.07;47.53;101066.59;5083537;28;20485;-86
2022/03/01 05:09:57;;;;;;;11.60;6.13;;;;;;;5.19;47.26;101068.75;5087277;28;20111;-86
2022/03/01 05:12:23;;;;;;;17.75;7.05;;;;;;;5.09;47.77;101063.69;5087593;28;20078;-86
2022/03/01 05:14:48;;;;;;;13.48;6.80;;;;;;;4.98;48.18;101070.47;5087822;28;20028;-86
2022/03/01 05:17:13;;;;;;;19.75;7.47;;;;;;;4.83;49.31;101075.94;5088288;28;20032;-86
2022/03/01 05:19:38;;;;;;;15.47;8.80;;;;;;;4.74;48.99;101070.66;5069179;28;20380;-85
2022/03/01 05:22:04;;;;;;;18.70;8.77;;;;;;;4.92;47.89;101050.47;5068118;28;20265;-86
2022/03/01 05:24:29;;;;;;;17.07;7.63;;;;;;;4.88;48.24;101051.88;5067325;28;20300;-86
2022/03/01 05:26:54;;;;;;;12.45;6.10;;;;;;;5.01;47.34;101052.00;5067902;28;20649;-86
2022/03/01 05:29:20;;;;;;;12.95;5.93;;;;;;;4.90;47.34;101047.13;5067647;28;20025;-85
2022/03/01 05:31:45;;;;;;;18.05;6.75;;;;;;;4.71;47.74;101059.41;5067076;28;20466;-86
2022/03/01 05:34:11;;;;;;;17.17;8.13;;;;;;;5.07;46.94;101061.19;5067143;28;20175;-86
2022/03/01 05:36:36;;;;;;;27.05;7.32;;;;;;;4.84;47.74;101066.81;5067124;28;20016;-87
2022/03/01 05:39:04;;;;;;;16.90;6.47;;;;;;;5.05;47.47;101067.81;5067837;28;20031;-85
2022/03/01 05:41:30;;;;;;;12.85;7.97;;;;;;;4.99;47.42;101064.88;5066063;28;20047;-85
2022/03/01 05:43:55;;;;;;;13.73;8.18;;;;;;;4.76;47.94;101065.91;5067639;28;20052;-86
2022/03/01 05:46:21;;;;;;;13.63;6.40;;;;;;;4.89;47.22;101069.75;5066942;28;20021;-85
2022/03/01 05:48:46;;;;;;;13.73;6.88;;;;;;;4.98;47.37;101055.06;5066018;28;20025;-86
2022/03/01 05:51:11;;;;;;;16.10;7.25;;;;;;;4.69;48.40;101061.47;5067183;28;20554;-84
2022/03/01 05:53:36;;;;;;;19.30;8.57;;;;;;;4.97;47.57;101055.28;5066983;28;20033;-86
2022/03/01 05:56:02;;;;;;;15.27;8.35;;;;;;;4.78;46.85;101063.00;5074935;28;20260;-87
2022/03/01 05:58:27;;;;;;;13.68;6.45;;;;;;;4.81;47.83;101056.38;5086372;28;20749;-84
2022/03/01 06:00:53;;;;;;;12.00;6.68;;;;;;;4.53;47.86;101064.25;5086282;28;20042;-85
2022/03/01 06:03:18;;;;;;;13.48;6.75;;;;;;;4.71;47.48;101073.78;5065812;28;20694;-85
2022/03/01 06:05:43;;;;;;;16.08;7.45;;;;;;;4.76;46.40;101065.91;5067391;28;20029;-83
2022/03/01 06:08:08;;;;;;;16.50;7.57;;;;;;;4.62;47.62;101070.34;5069950;28;20028;-85
2022/03/01 06:10:34;;;;;;;16.33;7.50;;;;;;;4.91;46.96;101070.41;5068056;28;20029;-86
2022/03/01 06:12:59;;;;;;;18.92;7.80;;;;;;;4.94;46.31;101075.44;5067014;28;20768;-85
2022/03/01 06:15:24;;;;;;;8.82;5.25;;;;;;;5.04;47.03;101066.16;5065592;28;20066;-85
2022/03/01 06:17:50;;;;;;;14.50;6.82;;;;;;;4.70;46.84;101063.97;5065786;28;20043;-85
2022/03/01 06:20:17;;;;;;;12.30;6.72;;;;;;;4.63;47.26;101066.63;5065203;28;20106;-86
2022/03/01 06:22:42;;;;;;;14.82;7.20;;;;;;;4.90;46.53;101069.56;5066728;28;20473;-87
2022/03/01 06:25:09;;;;;;;21.45;8.60;;;;;;;4.42;47.48;101070.16;5064782;28;20028;-86
2022/03/01 06:27:35;;;;;;;16.88;9.13;;;;;;;4.89;46.74;101065.19;5066355;28;20024;-86
2022/03/01 06:30:00;;;;;;;12.93;7.57;;;;;;;4.72;46.70;101070.03;5065410;28;20522;-84
2022/03/01 06:32:25;;;;;;;13.38;7.68;;;;;;;5.08;45.97;101062.03;5065765;28;20025;-86
2022/03/01 06:34:51;;;;;;;15.85;8.13;;;;;;;5.13;45.70;101067.66;5066408;28;20036;-85
2022/03/01 06:37:16;;;;;;;15.13;7.87;;;;;;;5.16;45.92;101075.41;5063657;28;20028;-86
2022/03/01 06:42:48;;;;;;;14.52;7.07;;;;;;;4.79;46.50;101084.44;5063889;28;20047;-85
2022/03/01 06:45:14;;;;;;;15.00;8.95;;;;;;;4.73;46.43;101081.69;5064379;28;20024;-83
2022/03/01 06:47:39;;;;;;;15.18;7.20;;;;;;;5.12;45.93;101080.38;5067559;28;20082;-84
2022/03/01 06:50:06;;;;;;;11.23;6.47;;;;;;;5.18;46.07;101078.75;5067378;28;20085;-85
2022/03/01 06:52:34;;;;;;;13.68;6.10;;;;;;;5.16;44.92;101093.47;5067175;28;20028;-85
2022/03/01 06:55:00;;;;;;;15.20;7.15;;;;;;;5.24;46.03;101085.22;5065435;28;20046;-86
2022/03/01 06:57:25;;;;;;;13.73;6.18;;;;;;;5.12;45.59;101085.78;5077954;28;20380;-86
2022/03/01 06:59:53;;;;;;;26.73;8.87;;;;;;;5.02;45.82;101082.56;5068860;28;20094;-86
2022/03/01 07:02:19;;;;;;;19.23;9.32;;;;;;;5.00;45.53;101088.16;5067918;28;20266;-84
2022/03/01 07:04:44;;;;;;;12.23;6.40;;;;;;;5.02;45.71;101083.38;5047903;28;20120;-85
2022/03/01 07:07:10;;;;;;;15.93;7.20;;;;;;;5.05;45.39;101090.28;5043638;28;20108;-86
2022/03/01 07:09:35;;;;;;;15.80;7.75;;;;;;;4.59;45.73;101092.38;5045944;28;20257;-85
2022/03/01 07:12:01;;;;;;;20.75;8.43;;;;;;;5.19;45.40;101080.41;5044576;28;20028;-86
2022/03/01 07:14:26;;;;;;;15.65;7.20;;;;;;;5.09;45.94;101075.34;5046589;28;20029;-85
2022/03/01 07:16:52;;;;;;;16.77;9.02;;;;;;;5.10;45.64;101079.72;5044811;28;20248;-86
2022/03/01 07:19:17;;;;;;;15.27;7.43;;;;;;;5.05;45.04;101086.72;5060730;28;20021;-87
2022/03/01 07:21:43;;;;;;;12.20;6.93;;;;;;;5.31;44.56;101085.28;5064735;28;20033;-87
2022/03/01 07:24:08;;;;;;;17.37;8.97;;;;;;;5.37;45.32;101087.19;5064381;28;20029;-85
2022/03/01 07:26:33;;;;;;;15.57;8.85;;;;;;;4.94;44.44;101088.09;5065661;28;20655;-85
2022/03/01 07:28:58;;;;;;;20.80;8.93;;;;;;;5.13;45.35;101089.28;5063675;28;20536;-86
2022/03/01 07:31:24;;;;;;;13.55;6.50;;;;;;;5.22;45.52;101088.13;5064927;28;20048;-89
2022/03/01 07:33:49;;;;;;;14.15;7.05;;;;;;;5.23;44.93;101084.38;5061671;28;20020;-88
2022/03/01 07:36:14;;;;;;;20.10;7.73;;;;;;;5.38;44.49;101083.44;5065094;28;20034;-89
2022/03/01 07:38:40;;;;;;;19.63;7.72;;;;;;;5.23;45.04;101087.09;5063643;28;20329;-89
2022/03/01 07:41:05;;;;;;;16.15;6.75;;;;;;;5.32;44.72;101084.25;5065427;28;20108;-91
2022/03/01 07:43:30;;;;;;;12.82;7.25;;;;;;;5.35;44.54;101073.84;5065149;28;20113;-88
2022/03/01 07:45:56;;;;;;;11.15;6.25;;;;;;;5.21;45.29;101086.44;5064304;28;20054;-86
2022/03/01 07:48:21;;;;;;;14.07;7.25;;;;;;;4.79;45.34;101083.59;5065451;28;20482;-88
2022/03/01 07:50:46;;;;;;;16.50;7.55;;;;;;;5.32;44.56;101078.84;5063542;28;20028;-87
2022/03/01 07:53:12;;;;;;;14.23;7.18;;;;;;;5.14;45.72;101074.75;5063832;28;20041;-87
2022/03/01 07:55:37;;;;;;;15.35;7.03;;;;;;;5.10;45.47;101073.47;5068157;28;20081;-85
2022/03/01 07:58:02;;;;;;;15.37;7.40;;;;;;;5.08;44.58;101075.53;5085990;28;20115;-89
2022/03/01 08:00:28;;;;;;;19.15;10.25;;;;;;;5.43;44.04;101070.16;5070306;28;20805;-85
2022/03/01 08:02:53;;;;;;;16.85;7.50;;;;;;;4.94;45.00;101080.84;5065995;28;20024;-87
2022/03/01 08:05:19;;;;;;;13.07;7.05;;;;;;;5.40;44.26;101091.38;5064709;28;20031;-89
2022/03/01 08:07:45;;;;;;;12.30;7.53;;;;;;;5.30;44.62;101081.75;5064125;28;20016;-86
2022/03/01 08:10:10;;;;;;;15.05;7.75;;;;;;;5.71;43.66;101082.84;5064885;28;20056;-86
2022/03/01 08:12:35;;;;;;;12.07;6.45;;;;;;;5.21;44.55;101083.75;5063872;28;20070;-91
2022/03/01 08:15:01;;;;;;;16.48;6.82;;;;;;;5.22;44.32;101088.13;5065345;28;20031;-88
2022/03/01 08:17:26;;;;;;;13.70;6.38;;;;;;;5.69;43.69;101084.06;5063511;28;20043;-87
2022/03/01 08:19:51;;;;;;;19.00;8.65;;;;;;;5.60;43.53;101080.66;5064312;28;20493;-91
2022/03/01 08:22:17;;;;;;;18.60;8.48;;;;;;;5.55;43.40;101088.56;5055438;28;20374;-88
2022/03/01 08:24:42;;;;;;;16.75;7.72;;;;;;;5.73;42.81;101094.28;5057173;28;20104;-86
2022/03/01 08:27:08;;;;;;;14.82;8.77;;;;;;;5.79;43.57;101086.41;5064494;28;20029;-88
2022/03/01 08:29:34;;;;;;;13.05;8.30;;;;;;;5.79;43.43;101091.81;5063137;28;20066;-89
2022/03/01 08:31:59;;;;;;;19.73;6.72;;;;;;;5.69;43.41;101089.47;5065238;28;20028;-86
2022/03/01 08:34:24;;;;;;;12.43;5.78;;;;;;;5.78;42.09;101084.72;5062320;28;20032;-86
2022/03/01 08:36:50;;;;;;;15.68;7.93;;;;;;;5.94;42.86;101092.50;5071845;28;20025;-86
2022/03/01 08:39:15;;;;;;;14.77;6.38;;;;;;;5.75;43.08;101087.84;5070438;28;20545;-86
2022/03/01 08:41:41;;;;;;;20.08;5.40;;;;;;;5.80;42.23;101085.34;5071617;28;20032;-85
2022/03/01 08:44:06;;;;;;;16.05;7.80;;;;;;;6.11;42.30;101092.19;5070727;28;20024;-88
2022/03/01 08:46:31;;;;;;;10.50;6.00;;;;;;;5.89;41.22;101084.16;5070426;28;20035;-86
2022/03/01 08:48:57;;;;;;;13.82;5.35;;;;;;;6.00;42.33;101090.06;5071729;28;20074;-85
2022/03/01 08:51:25;;;;;;;14.23;7.43;;;;;;;5.85;41.47;101082.91;5069892;28;20032;-86
2022/03/01 08:53:52;;;;;;;15.30;7.47;;;;;;;6.01;42.54;101075.47;5074688;28;20055;-87
2022/03/01 08:56:17;;;;;;;12.80;5.40;;;;;;;5.91;41.49;101082.09;5079476;28;20024;-87
2022/03/01 08:58:44;;;;;;;12.90;6.25;;;;;;;6.03;41.51;101085.06;5092005;28;20024;-86
2022/03/01 09:01:10;;;;;;;14.15;5.55;;;;;;;5.93;41.63;101095.44;5090975;28;20024;-85
2022/03/01 09:03:36;;;;;;;12.07;5.88;;;;;;;6.07;41.51;101097.19;5090955;28;20016;-86
2022/03/01 09:06:05;;;;;;;14.52;6.65;;;;;;;6.07;40.67;101096.34;5091906;28;20028;-86
2022/03/01 09:08:32;;;;;;;13.85;5.80;;;;;;;6.15;40.93;101103.47;5090525;28;20107;-86
2022/03/01 09:10:57;;;;;;;13.32;5.50;;;;;;;6.23;41.08;101092.44;5091468;28;20055;-88
2022/03/01 09:13:43;;;;;;;12.43;6.93;;;;;;;6.32;41.76;101098.53;5090016;28;20032;-84
2022/03/01 09:16:09;;;;;;;15.52;6.72;;;;;;;6.24;41.30;101096.84;5091186;28;20046;-94
2022/03/01 09:18:35;;;;;;;10.55;5.80;;;;;;;6.27;40.94;101101.84;5081849;28;20017;-86
2022/03/01 09:21:01;;;;;;;14.05;6.57;;;;;;;6.45;41.82;101103.16;5070457;28;20021;-82
2022/03/01 09:23:27;;;;;;;13.68;5.78;;;;;;;6.31;41.77;101096.84;5071562;28;20052;-84
2022/03/01 09:25:52;;;;;;;18.58;8.27;;;;;;;6.38;42.07;101103.16;5069265;28;20059;-87
2022/03/01 09:28:18;;;;;;;14.38;6.20;;;;;;;6.54;41.64;101107.34;5071181;28;20025;-86
2022/03/01 09:30:44;;;;;;;15.65;6.45;;;;;;;6.44;39.67;101106.06;5071733;28;20047;-87
2022/03/01 09:33:09;;;;;;;13.90;6.13;;;;;;;6.56;40.29;101106.31;5072067;28;20055;-85
2022/03/01 09:35:35;;;;;;;16.70;5.68;;;;;;;6.65;40.49;101114.03;5069910;28;20456;-87
2022/03/01 09:38:00;;;;;;;14.15;5.75;;;;;;;6.73;40.95;101126.56;5062850;28;20028;-91
2022/03/01 09:40:26;;;;;;;12.15;5.97;;;;;;;6.82;40.41;101123.66;5050524;28;20021;-85
2022/03/01 09:42:52;;;;;;;15.93;5.70;;;;;;;6.71;40.29;101128.63;5049088;28;20025;-89
2022/03/01 09:45:19;;;;;;;14.18;6.35;;;;;;;6.83;41.82;101126.19;5050800;28;20477;-85
2022/03/01 09:47:44;;;;;;;16.48;6.90;;;;;;;6.84;41.87;101111.56;5048017;28;20110;-86
2022/03/01 09:50:11;;;;;;;19.08;6.97;;;;;;;6.91;41.67;101111.59;5067867;28;20025;-85
2022/03/01 09:52:37;;;;;;;13.63;5.78;;;;;;;6.80;41.27;101107.59;5055552;28;20369;-85
2022/03/01 09:55:17;;;;;;;14.15;6.15;;;;;;;7.02;42.42;101093.03;5053266;28;20066;-88
2022/03/01 09:57:42;;;;;;;15.45;8.23;;;;;;;6.89;41.08;101094.69;5068339;28;20016;-88
2022/03/01 10:00:09;;;;;;;18.05;8.15;;;;;;;6.91;41.58;101099.91;5065828;28;20398;-90
2022/03/01 10:02:36;;;;;;;14.68;6.15;;;;;;;6.99;42.67;101091.56;5068031;28;20028;-94
2022/03/01 10:05:02;;;;;;;11.48;5.30;;;;;;;6.89;42.44;101103.63;5065547;28;20068;-88
2022/03/01 10:07:29;;;;;;;12.45;6.43;;;;;;;6.97;41.70;101102.63;5067571;28;20063;-84
2022/03/01 10:10:04;;;;;;;14.43;6.70;;;;;;;6.85;41.13;101109.69;5065841;28;20037;-90
2022/03/01 10:12:29;;;;;;;12.45;5.45;;;;;;;6.95;41.62;101120.13;5067579;28;20027;-84
2022/03/01 10:14:55;;;;;;;13.48;7.30;;;;;;;7.08;40.87;101114.72;5067362;28;20099;-88
2022/03/01 10:17:21;;;;;;;17.50;5.88;;;;;;;7.12;41.50;101110.53;5065888;28;20080;-89
2022/03/01 10:19:46;;;;;;;15.27;6.82;;;;;;;7.04;41.07;101115.34;5068035;28;20112;-90
2022/03/01 10:22:12;;;;;;;11.98;5.45;;;;;;;7.08;40.17;101103.88;5065552;28;20034;-88
2022/03/01 10:24:47;;;;;;;13.82;5.97;;;;;;;7.24;39.78;101115.34;5067574;28;20028;-88
2022/03/01 10:27:13;;;;;;;13.13;5.88;;;;;;;7.53;41.07;101117.81;5065492;28;20032;-84
2022/03/01 10:29:46;;;;;;;11.30;6.15;;;;;;;7.46;40.76;101118.66;5069516;28;20086;-86
2022/03/01 10:32:12;;;;;;;16.90;7.35;;;;;;;7.36;40.62;101116.38;5079685;28;20510;-84
2022/03/01 10:34:38;;;;;;;18.67;8.35;;;;;;;7.34;40.28;101117.66;5064546;28;20128;-83
2022/03/01 10:37:03;;;;;;;15.10;6.32;;;;;;;7.70;40.40;101126.34;5067085;28;20032;-87
2022/03/01 10:42:16;;;;;;;13.32;5.40;;;;;;;7.66;39.92;101127.81;5066177;28;20101;-86
2022/03/01 10:44:41;;;;;;;17.48;9.05;;;;;;;7.71;41.37;101119.88;5066650;28;20044;-87
2022/03/01 10:47:07;;;;;;;13.20;6.67;;;;;;;7.70;40.40;101120.94;5066197;28;20059;-88
2022/03/01 10:49:35;;;;;;;15.82;7.28;;;;;;;7.74;40.44;101122.19;5067234;28;20322;-87
2022/03/01 10:52:05;;;;;;;13.75;5.90;;;;;;;7.90;40.17;101128.19;5065262;28;20044;-87
2022/03/01 10:54:33;;;;;;;12.02;6.35;;;;;;;7.93;40.79;101122.34;5066779;28;20116;-85
2022/03/01 10:57:04;;;;;;;16.20;6.60;;;;;;;7.75;41.22;101126.53;5080616;28;20528;-84
2022/03/01 10:59:32;;;;;;;14.18;7.00;;;;;;;7.78;40.37;101131.56;5086168;28;20055;-90
2022/03/01 11:01:58;;;;;;;14.75;6.28;;;;;;;7.86;39.70;101122.34;5085917;28;20028;-86
2022/03/01 11:04:25;;;;;;;15.10;6.90;;;;;;;7.93;40.58;101122.34;5085934;28;20050;-88
2022/03/01 11:06:53;;;;;;;11.98;5.90;;;;;;;8.06;40.11;101129.59;5087269;28;20105;-84
2022/03/01 11:09:18;;;;;;;16.10;7.63;;;;;;;8.08;40.86;101129.38;5081698;28;20468;-89
2022/03/01 11:11:45;;;;;;;16.40;7.65;;;;;;;7.96;41.21;101130.06;5063336;28;20034;-86
2022/03/01 11:14:14;;;;;;;23.73;7.43;;;;;;;8.02;40.15;101129.19;5063601;28;20082;-85
2022/03/01 11:16:47;;;;;;;13.35;6.38;;;;;;;8.00;41.31;101119.59;5066361;28;20093;-85
2022/03/01 11:19:33;;;;;;;13.43;6.32;;;;;;;8.16;41.17;101121.84;5064321;28;20082;-86
2022/03/01 11:22:00;;;;;;;19.38;7.75;;;;;;;8.21;41.25;101112.19;5063695;28;20042;-87
2022/03/01 11:24:26;;;;;;;11.77;5.60;;;;;;;8.27;40.46;101105.91;5058680;28;20019;-86
2022/03/01 11:26:51;;;;;;;15.57;6.78;;;;;;;8.26;39.69;101101.50;5063597;28;20020;-86
2022/03/01 11:29:18;;;;;;;15.27;6.10;;;;;;;8.18;39.13;101108.03;5065121;28;20036;-91
2022/03/01 11:31:58;;;;;;;14.18;6.68;;;;;;;8.29;40.73;101110.09;5063584;28;20040;-88
2022/03/01 11:34:24;;;;;;;12.90;6.40;;;;;;;8.21;40.28;101106.78;5064946;28;20052;-89
2022/03/01 11:36:55;;;;;;;14.77;6.72;;;;;;;8.22;39.77;101105.69;5059605;28;20040;-88